createdAt,value
2019-03-01T00:02:07.332Z,10.95
2019-03-01T00:04:52.656Z,10.93
2019-03-01T00:07:57.550Z,10.94
2019-03-01T00:11:20.479Z,10.95
2019-03-01T00:14:18.975Z,10.95
2019-03-01T00:17:23.953Z,10.93
2019-03-01T00:20:40.749Z,10.89
2019-03-01T00:23:26.211Z,10.88
2019-03-01T00:26:37.013Z,10.88
2019-03-01T00:30:03.393Z,10.85
2019-03-01T00:32:53.671Z,10.86
2019-03-01T00:36:09.110Z,10.85
2019-03-01T00:38:54.253Z,10.83
2019-03-01T00:41:38.434Z,10.81
2019-03-01T00:44:48.364Z,10.78
2019-03-01T00:47:18.418Z,10.83
2019-03-01T00:49:48.377Z,10.84
2019-03-01T00:52:18.077Z,10.83
2019-03-01T00:54:47.822Z,10.81
2019-03-01T00:57:17.502Z,10.83
2019-03-01T00:59:47.284Z,10.81
2019-03-01T01:02:17.040Z,10.81
2019-03-01T01:04:46.836Z,10.82
2019-03-01T01:07:16.546Z,10.83
2019-03-01T01:09:46.239Z,10.80
2019-03-01T01:12:16.551Z,10.78
2019-03-01T01:14:46.472Z,10.77
2019-03-01T01:17:16.483Z,10.77
2019-03-01T01:19:46.278Z,10.71
2019-03-01T01:22:16.229Z,10.71
2019-03-01T01:24:45.913Z,10.71
2019-03-01T01:27:15.668Z,10.70
2019-03-01T01:29:45.998Z,10.70
2019-03-01T01:32:15.704Z,10.68
2019-03-01T01:34:45.394Z,10.69
2019-03-01T01:37:15.330Z,10.66
2019-03-01T01:39:45.010Z,10.64
2019-03-01T01:42:14.693Z,10.65
2019-03-01T01:44:44.773Z,10.67
2019-03-01T01:47:14.468Z,10.64
2019-03-01T01:49:44.145Z,10.64
2019-03-01T01:52:14.951Z,10.65
2019-03-01T01:54:44.675Z,10.64
2019-03-01T01:57:14.504Z,10.64
2019-03-01T01:59:45.466Z,10.64
2019-03-01T02:02:15.239Z,10.63
2019-03-01T02:04:45.161Z,10.66
2019-03-01T02:07:14.834Z,10.65
2019-03-01T02:09:44.954Z,10.63
2019-03-01T02:12:15.904Z,10.65
2019-03-01T02:14:45.670Z,10.67
2019-03-01T02:17:15.418Z,10.71
2019-03-01T02:19:45.254Z,10.74
2019-03-01T02:22:15.093Z,10.73
2019-03-01T02:24:44.820Z,10.74
2019-03-01T02:27:21.894Z,10.75
2019-03-01T02:29:51.729Z,10.78
2019-03-01T02:32:59.902Z,10.78
2019-03-01T02:35:29.666Z,10.79
2019-03-01T02:37:59.410Z,10.82
2019-03-01T02:40:29.639Z,10.84
2019-03-01T02:42:59.381Z,10.85
2019-03-01T02:45:29.073Z,10.84
2019-03-01T02:47:58.756Z,10.86
2019-03-01T02:50:28.510Z,10.86
2019-03-01T02:52:59.238Z,10.87
2019-03-01T02:55:29.252Z,10.87
2019-03-01T02:57:58.929Z,10.88
2019-03-01T03:00:28.904Z,10.87
2019-03-01T03:02:58.649Z,10.85
2019-03-01T03:05:28.389Z,10.87
2019-03-01T03:07:59.998Z,10.88
2019-03-01T03:10:29.968Z,10.88
2019-03-01T03:13:02.026Z,10.84
2019-03-01T03:15:34.267Z,10.84
2019-03-01T03:18:04.083Z,10.85
2019-03-01T03:20:33.988Z,10.87
2019-03-01T03:23:03.758Z,10.88
2019-03-01T03:25:33.423Z,10.88
2019-03-01T03:28:03.509Z,10.84
2019-03-01T03:30:33.347Z,10.84
2019-03-01T03:33:03.635Z,10.84
2019-03-01T03:35:33.352Z,10.80
2019-03-01T03:38:03.115Z,10.77
2019-03-01T03:40:32.918Z,10.75
2019-03-01T03:43:02.674Z,10.72
2019-03-01T03:45:32.445Z,10.75
2019-03-01T03:48:02.137Z,10.79
2019-03-01T03:50:31.915Z,10.81
2019-03-01T03:53:01.634Z,10.78
2019-03-01T03:55:31.487Z,10.76
2019-03-01T03:58:01.501Z,10.78
2019-03-01T04:00:31.428Z,10.79
2019-03-01T04:03:01.567Z,10.80
2019-03-01T04:05:31.340Z,10.82
2019-03-01T04:08:01.024Z,10.81
2019-03-01T04:10:30.726Z,10.81
2019-03-01T04:13:01.839Z,10.82
2019-03-01T04:15:31.756Z,10.84
2019-03-01T04:18:01.432Z,10.87
2019-03-01T04:20:31.159Z,10.89
2019-03-01T04:23:00.841Z,10.91
2019-03-01T04:25:30.638Z,10.91
2019-03-01T04:28:00.491Z,10.91
2019-03-01T04:30:30.329Z,10.92
2019-03-01T04:32:59.995Z,10.94
2019-03-01T04:35:29.759Z,10.96
2019-03-01T04:37:59.452Z,11.03
2019-03-01T04:40:29.150Z,11.11
2019-03-01T04:42:58.848Z,11.09
2019-03-01T04:45:28.647Z,11.09
2019-03-01T04:47:58.396Z,11.06
2019-03-01T04:50:28.383Z,11.04
2019-03-01T04:52:58.302Z,11.04
2019-03-01T04:55:28.416Z,11.04
2019-03-01T04:57:58.104Z,11.03
2019-03-01T05:00:27.793Z,11.03
2019-03-01T05:02:57.639Z,11.01
2019-03-01T05:05:27.598Z,11.00
2019-03-01T05:07:57.292Z,10.99
2019-03-01T05:10:27.022Z,10.94
2019-03-01T05:12:57.726Z,10.92
2019-03-01T05:15:27.448Z,10.89
2019-03-01T05:17:57.143Z,10.89
2019-03-01T05:20:26.846Z,10.88
2019-03-01T05:22:56.548Z,10.88
2019-03-01T05:25:26.252Z,10.89
2019-03-01T05:27:56.209Z,10.90
2019-03-01T05:30:25.987Z,10.90
2019-03-01T05:32:55.920Z,10.89
2019-03-01T05:35:25.666Z,10.90
2019-03-01T05:37:55.522Z,10.89
2019-03-01T05:40:25.387Z,10.89
2019-03-01T05:42:55.062Z,10.89
2019-03-01T05:45:24.801Z,10.88
2019-03-01T05:47:54.544Z,10.89
2019-03-01T05:50:24.262Z,10.90
2019-03-01T05:52:54.202Z,10.88
2019-03-01T05:55:24.043Z,10.87
2019-03-01T05:58:23.784Z,10.81
2019-03-01T06:00:53.679Z,10.81
2019-03-01T06:04:04.977Z,10.80
2019-03-01T06:06:59.466Z,10.80
2019-03-01T06:09:42.486Z,10.80
2019-03-01T06:12:44.334Z,10.80
2019-03-01T06:16:13.520Z,10.77
2019-03-01T06:19:06.952Z,10.76
2019-03-01T06:22:07.523Z,10.74
2019-03-01T06:25:04.651Z,10.69
2019-03-01T06:27:51.538Z,10.64
2019-03-01T06:30:51.930Z,10.61
2019-03-01T06:34:09.477Z,10.57
2019-03-01T06:37:18.350Z,10.52
2019-03-01T06:40:23.058Z,10.49
2019-03-01T06:43:04.172Z,10.46
2019-03-01T06:45:45.823Z,10.40
2019-03-01T06:48:25.172Z,10.41
2019-03-01T06:50:59.642Z,10.39
2019-03-01T06:53:29.397Z,10.40
2019-03-01T06:56:01.736Z,10.37
2019-03-01T06:58:36.923Z,10.31
2019-03-01T07:01:10.680Z,10.30
2019-03-01T07:03:46.859Z,10.29
2019-03-01T07:06:21.542Z,10.33
2019-03-01T07:08:51.262Z,10.36
2019-03-01T07:11:21.214Z,10.36
2019-03-01T07:13:50.930Z,10.40
2019-03-01T07:16:21.096Z,10.42
2019-03-01T07:18:50.786Z,10.38
2019-03-01T07:21:20.496Z,10.34
2019-03-01T07:23:50.163Z,10.32
2019-03-01T07:26:19.977Z,10.33
2019-03-01T07:28:49.924Z,10.31
2019-03-01T07:31:19.590Z,10.32
2019-03-01T07:33:49.298Z,10.30
2019-03-01T07:36:19.009Z,10.34
2019-03-01T07:38:48.766Z,10.33
2019-03-01T07:41:18.456Z,10.37
2019-03-01T07:43:48.505Z,10.36
2019-03-01T07:46:18.319Z,10.39
2019-03-01T07:48:48.281Z,10.40
2019-03-01T07:51:18.009Z,10.39
2019-03-01T07:53:47.694Z,10.34
2019-03-01T07:56:17.415Z,10.33
2019-03-01T07:58:47.334Z,10.33
2019-03-01T08:01:17.128Z,10.37
2019-03-01T08:03:52.264Z,10.40
2019-03-01T08:06:18.473Z,10.33
2019-03-01T08:08:48.387Z,10.32
2019-03-01T08:11:18.177Z,10.33
2019-03-01T08:13:49.395Z,10.32
2019-03-01T08:16:21.501Z,10.24
2019-03-01T08:18:52.226Z,10.14
2019-03-01T08:21:21.994Z,10.16
2019-03-01T08:23:51.672Z,10.20
2019-03-01T08:26:21.355Z,10.17
2019-03-01T08:28:51.089Z,10.09
2019-03-01T08:31:21.205Z,9.85
2019-03-01T08:33:52.000Z,9.70
2019-03-01T08:36:21.749Z,9.62
2019-03-01T08:38:51.693Z,9.58
2019-03-01T08:41:24.666Z,9.41
2019-03-01T08:43:52.998Z,9.25
2019-03-01T08:46:22.661Z,8.99
2019-03-01T08:48:52.469Z,8.85
2019-03-01T08:51:22.661Z,8.58
2019-03-01T08:53:53.600Z,8.41
2019-03-01T08:56:26.094Z,8.32
2019-03-01T08:58:54.670Z,8.20
2019-03-01T09:01:24.564Z,8.18
2019-03-01T09:04:00.288Z,8.10
2019-03-01T09:06:30.267Z,8.06
2019-03-01T09:09:01.389Z,8.03
2019-03-01T09:11:32.920Z,8.03
2019-03-01T09:14:02.992Z,7.96
2019-03-01T09:16:32.736Z,7.89
2019-03-01T09:19:02.530Z,7.83
2019-03-01T09:21:32.361Z,7.75
2019-03-01T09:24:02.027Z,7.75
2019-03-01T09:26:31.695Z,7.76
2019-03-01T09:29:01.379Z,7.72
2019-03-01T09:31:31.370Z,7.69
2019-03-01T09:34:01.115Z,7.56
2019-03-01T09:36:40.576Z,7.48
2019-03-01T09:39:10.597Z,7.49
2019-03-01T09:41:41.531Z,7.50
2019-03-01T09:44:11.353Z,7.47
2019-03-01T09:46:41.056Z,7.44
2019-03-01T09:49:11.148Z,7.41
2019-03-01T09:51:43.665Z,7.37
2019-03-01T09:54:12.274Z,7.39
2019-03-01T09:56:42.621Z,7.44
2019-03-01T09:59:12.341Z,7.48
2019-03-01T10:01:41.993Z,7.40
2019-03-01T10:04:11.893Z,7.46
2019-03-01T10:06:41.593Z,7.49
2019-03-01T10:09:11.985Z,7.50
2019-03-01T10:11:41.998Z,7.51
2019-03-01T10:14:11.737Z,7.45
2019-03-01T10:16:41.491Z,7.42
2019-03-01T10:19:11.334Z,7.43
2019-03-01T10:21:41.010Z,7.49
2019-03-01T10:24:10.709Z,7.49
2019-03-01T10:26:40.399Z,7.54
2019-03-01T10:29:10.308Z,7.56
2019-03-01T10:31:40.012Z,7.51
2019-03-01T10:34:09.664Z,7.41
2019-03-01T10:36:39.456Z,7.42
2019-03-01T10:39:13.943Z,7.34
2019-03-01T10:41:43.716Z,7.39
2019-03-01T10:44:13.393Z,7.42
2019-03-01T10:46:43.074Z,7.41
2019-03-01T10:49:13.720Z,7.40
2019-03-01T10:51:43.519Z,7.38
2019-03-01T10:54:13.233Z,7.44
2019-03-01T10:56:42.918Z,7.41
2019-03-01T10:59:12.605Z,7.33
2019-03-01T11:01:42.343Z,7.39
2019-03-01T11:04:12.280Z,7.43
2019-03-01T11:06:41.947Z,7.48
2019-03-01T11:09:13.866Z,7.46
2019-03-01T11:11:43.601Z,7.49
2019-03-01T11:14:13.515Z,7.55
2019-03-01T11:16:43.199Z,7.61
2019-03-01T11:19:12.920Z,7.64
2019-03-01T11:21:42.644Z,7.63
2019-03-01T11:24:12.431Z,7.66
2019-03-01T11:26:42.150Z,7.70
2019-03-01T11:29:11.810Z,7.67
2019-03-01T11:31:41.565Z,7.74
2019-03-01T11:34:11.288Z,7.64
2019-03-01T11:36:42.017Z,7.57
2019-03-01T11:39:11.950Z,7.57
2019-03-01T11:41:41.617Z,7.45
2019-03-01T11:44:11.379Z,7.44
2019-03-01T11:46:42.070Z,7.47
2019-03-01T11:49:11.767Z,7.41
2019-03-01T11:51:42.441Z,7.46
2019-03-01T11:54:12.378Z,7.46
2019-03-01T11:56:42.049Z,7.35
2019-03-01T11:59:11.742Z,7.33
2019-03-01T12:01:41.492Z,7.35
2019-03-01T12:04:11.192Z,7.40
2019-03-01T12:06:40.873Z,7.41
2019-03-01T12:09:10.983Z,7.43
2019-03-01T12:11:40.762Z,7.47
2019-03-01T12:14:10.440Z,7.45
2019-03-01T12:16:40.579Z,7.41
2019-03-01T12:19:10.289Z,7.43
2019-03-01T12:21:40.032Z,7.44
2019-03-01T12:24:09.877Z,7.44
2019-03-01T12:26:39.550Z,7.54
2019-03-01T12:29:09.314Z,7.58
2019-03-01T12:31:39.020Z,7.57
2019-03-01T12:34:08.694Z,7.53
2019-03-01T12:36:38.726Z,7.48
2019-03-01T12:39:10.022Z,7.56
2019-03-01T12:41:41.432Z,7.42
2019-03-01T12:44:11.172Z,7.45
2019-03-01T12:46:40.850Z,7.45
2019-03-01T12:49:11.597Z,7.44
2019-03-01T12:51:41.543Z,7.49
2019-03-01T12:54:11.396Z,7.50
2019-03-01T12:56:41.083Z,7.53
2019-03-01T12:59:11.572Z,7.54
2019-03-01T13:01:41.824Z,7.52
2019-03-01T13:04:11.538Z,7.57
2019-03-01T13:06:41.208Z,7.58
2019-03-01T13:09:16.048Z,7.57
2019-03-01T13:11:48.656Z,7.56
2019-03-01T13:14:17.521Z,7.45
2019-03-01T13:16:47.274Z,7.44
2019-03-01T13:19:16.951Z,7.40
2019-03-01T13:21:49.139Z,7.34
2019-03-01T13:24:18.355Z,7.32
2019-03-01T13:27:00.649Z,7.37
2019-03-01T13:29:30.633Z,7.35
2019-03-01T13:32:00.301Z,7.34
2019-03-01T13:34:29.967Z,7.38
2019-03-01T13:36:59.654Z,7.42
2019-03-01T13:39:29.320Z,7.51
2019-03-01T13:41:59.256Z,7.56
2019-03-01T13:44:28.922Z,7.58
2019-03-01T13:46:58.596Z,7.50
2019-03-01T13:49:30.409Z,7.58
2019-03-01T13:51:59.831Z,7.59
2019-03-01T13:54:29.866Z,7.47
2019-03-01T13:56:59.806Z,7.54
2019-03-01T13:59:29.500Z,7.63
2019-03-01T14:01:59.279Z,7.61
2019-03-01T14:04:29.003Z,7.64
2019-03-01T14:06:58.691Z,7.61
2019-03-01T14:09:28.614Z,7.65
2019-03-01T14:11:59.333Z,7.63
2019-03-01T14:14:30.258Z,7.55
2019-03-01T14:17:00.019Z,7.47
2019-03-01T14:19:30.071Z,7.48
2019-03-01T14:21:59.736Z,7.50
2019-03-01T14:24:30.332Z,7.51
2019-03-01T14:27:01.242Z,7.58
2019-03-01T14:29:31.020Z,7.61
2019-03-01T14:32:00.919Z,7.56
2019-03-01T14:34:30.826Z,7.66
2019-03-01T14:37:01.415Z,7.72
2019-03-01T14:39:31.193Z,7.79
2019-03-01T14:42:00.891Z,7.83
2019-03-01T14:44:33.865Z,7.90
2019-03-01T14:47:03.430Z,7.93
2019-03-01T14:49:33.129Z,7.96
2019-03-01T14:52:02.874Z,8.01
2019-03-01T14:54:32.587Z,7.98
2019-03-01T14:57:09.916Z,7.94
2019-03-01T14:59:54.964Z,7.87
2019-03-01T15:02:30.988Z,7.87
2019-03-01T15:05:05.481Z,7.89
2019-03-01T15:07:33.047Z,7.85
2019-03-01T15:10:02.985Z,7.88
2019-03-01T15:12:33.709Z,7.92
2019-03-01T15:15:03.600Z,7.89
2019-03-01T15:17:33.617Z,7.82
2019-03-01T15:20:03.358Z,7.91
2019-03-01T15:22:33.310Z,7.95
2019-03-01T15:25:02.976Z,7.93
2019-03-01T15:27:32.636Z,7.99
2019-03-01T15:30:05.638Z,8.06
2019-03-01T15:32:36.185Z,8.02
2019-03-01T15:35:06.358Z,8.03
2019-03-01T15:37:36.416Z,7.98
2019-03-01T15:40:07.379Z,7.97
2019-03-01T15:42:37.147Z,7.98
2019-03-01T15:45:07.799Z,7.97
2019-03-01T15:47:37.462Z,7.92
2019-03-01T15:50:08.878Z,7.86
2019-03-01T15:52:38.696Z,7.85
2019-03-01T15:55:11.829Z,7.78
2019-03-01T15:57:41.435Z,7.72
2019-03-01T16:00:11.376Z,7.74
2019-03-01T16:02:41.273Z,7.76
2019-03-01T16:05:11.332Z,7.70
2019-03-01T16:07:40.995Z,7.71
2019-03-01T16:10:11.177Z,7.75
2019-03-01T16:12:40.952Z,7.82
2019-03-01T16:15:12.008Z,7.77
2019-03-01T16:17:41.801Z,7.73
2019-03-01T16:20:12.837Z,7.65
2019-03-01T16:22:42.645Z,7.59
2019-03-01T16:25:13.197Z,7.55
2019-03-01T16:27:42.981Z,7.54
2019-03-01T16:30:14.550Z,7.55
2019-03-01T16:32:49.709Z,7.60
2019-03-01T16:35:18.468Z,7.57
2019-03-01T16:37:49.580Z,7.54
2019-03-01T16:40:19.835Z,7.52
2019-03-01T16:42:54.312Z,7.46
2019-03-01T16:45:21.998Z,7.46
2019-03-01T16:47:51.638Z,7.41
2019-03-01T16:50:21.659Z,7.44
2019-03-01T16:52:51.383Z,7.48
2019-03-01T16:55:24.487Z,7.54
2019-03-01T16:57:54.976Z,7.52
2019-03-01T17:00:24.253Z,7.53
2019-03-01T17:02:53.995Z,7.52
2019-03-01T17:05:24.001Z,7.49
2019-03-01T17:07:53.741Z,7.49
2019-03-01T17:10:26.434Z,7.47
2019-03-01T17:12:55.140Z,7.43
2019-03-01T17:15:24.908Z,7.41
2019-03-01T17:17:54.663Z,7.40
2019-03-01T17:20:24.348Z,7.38
2019-03-01T17:22:54.105Z,7.36
2019-03-01T17:25:26.725Z,7.38
2019-03-01T17:27:55.639Z,7.37
2019-03-01T17:30:25.788Z,7.35
2019-03-01T17:32:55.732Z,7.31
2019-03-01T17:35:25.518Z,7.30
2019-03-01T17:37:55.183Z,7.31
2019-03-01T17:40:24.881Z,7.32
2019-03-01T17:42:56.432Z,7.33
2019-03-01T17:45:25.945Z,7.35
2019-03-01T17:47:55.705Z,7.39
2019-03-01T17:50:25.601Z,7.39
2019-03-01T17:52:55.284Z,7.40
2019-03-01T17:55:25.045Z,7.36
2019-03-01T17:57:54.803Z,7.29
2019-03-01T18:00:30.541Z,7.30
2019-03-01T18:03:00.246Z,7.31
2019-03-01T18:05:30.006Z,7.34
2019-03-01T18:08:03.202Z,7.37
2019-03-01T18:10:33.045Z,7.37
2019-03-01T18:13:02.822Z,7.36
2019-03-01T18:15:32.564Z,7.36
2019-03-01T18:18:02.231Z,7.36
2019-03-01T18:20:33.887Z,7.37
2019-03-01T18:23:04.966Z,7.37
2019-03-01T18:25:34.823Z,7.41
2019-03-01T18:28:05.493Z,7.44
2019-03-01T18:30:35.296Z,7.42
2019-03-01T18:33:05.127Z,7.39
2019-03-01T18:35:34.951Z,7.41
2019-03-01T18:38:05.170Z,7.39
2019-03-01T18:40:34.834Z,7.36
2019-03-01T18:43:05.039Z,7.36
2019-03-01T18:45:34.783Z,7.36
2019-03-01T18:48:08.695Z,7.38
2019-03-01T18:50:36.665Z,7.42
2019-03-01T18:53:06.400Z,7.34
2019-03-01T18:55:36.170Z,7.32
2019-03-01T18:58:06.115Z,7.30
2019-03-01T19:00:37.088Z,7.30
2019-03-01T19:03:06.952Z,7.29
2019-03-01T19:05:40.032Z,7.25
2019-03-01T19:08:08.776Z,7.30
2019-03-01T19:10:38.609Z,7.30
2019-03-01T19:13:08.376Z,7.26
2019-03-01T19:15:38.319Z,7.23
2019-03-01T19:18:08.070Z,7.20
2019-03-01T19:20:41.580Z,7.19
2019-03-01T19:23:10.329Z,7.20
2019-03-01T19:25:40.150Z,7.16
2019-03-01T19:28:09.911Z,7.20
2019-03-01T19:30:40.563Z,7.19
2019-03-01T19:33:10.308Z,7.19
2019-03-01T19:35:40.047Z,7.17
2019-03-01T19:38:09.821Z,7.17
2019-03-01T19:40:39.540Z,7.18
2019-03-01T19:43:10.267Z,7.17
2019-03-01T19:45:41.826Z,7.18
2019-03-01T19:48:11.568Z,7.19
2019-03-01T19:50:41.260Z,7.19
2019-03-01T19:53:10.965Z,7.22
2019-03-01T19:55:40.640Z,7.24
2019-03-01T19:58:12.779Z,7.24
2019-03-01T20:00:43.552Z,7.25
2019-03-01T20:03:13.215Z,7.28
2019-03-01T20:05:42.953Z,7.30
2019-03-01T20:08:12.654Z,7.29
2019-03-01T20:10:42.396Z,7.28
2019-03-01T20:13:16.449Z,7.28
2019-03-01T20:15:46.041Z,7.26
2019-03-01T20:18:16.182Z,7.25
2019-03-01T20:20:45.948Z,7.27
2019-03-01T20:23:15.619Z,7.26
2019-03-01T20:25:47.483Z,7.27
2019-03-01T20:28:16.945Z,7.27
2019-03-01T20:30:46.895Z,7.25
2019-03-01T20:33:16.575Z,7.24
2019-03-01T20:35:46.512Z,7.24
2019-03-01T20:38:17.052Z,7.23
2019-03-01T20:40:46.868Z,7.21
2019-03-01T20:43:16.553Z,7.24
2019-03-01T20:45:46.558Z,7.25
2019-03-01T20:48:16.293Z,7.23
2019-03-01T20:50:47.619Z,7.23
2019-03-01T20:53:17.578Z,7.24
2019-03-01T20:55:47.227Z,7.23
2019-03-01T20:58:17.016Z,7.20
2019-03-01T21:00:46.725Z,7.19
2019-03-01T21:03:16.413Z,7.19
2019-03-01T21:05:46.115Z,7.20
2019-03-01T21:08:15.852Z,7.19
2019-03-01T21:10:46.855Z,7.18
2019-03-01T21:13:16.990Z,7.15
2019-03-01T21:15:46.696Z,7.15
2019-03-01T21:18:16.382Z,7.14
2019-03-01T21:20:46.076Z,7.12
2019-03-01T21:23:15.948Z,7.13
2019-03-01T21:25:45.623Z,7.17
2019-03-01T21:28:15.415Z,7.13
2019-03-01T21:30:45.677Z,7.14
2019-03-01T21:33:15.939Z,7.11
2019-03-01T21:35:47.765Z,7.07
2019-03-01T21:38:17.351Z,7.05
2019-03-01T21:40:47.593Z,7.06
2019-03-01T21:43:18.225Z,7.07
2019-03-01T21:45:48.291Z,7.06
2019-03-01T21:48:18.675Z,7.07
2019-03-01T21:50:48.425Z,7.05
2019-03-01T21:53:18.119Z,7.08
2019-03-01T21:55:47.912Z,7.11
2019-03-01T21:58:17.585Z,7.12
2019-03-01T22:00:47.377Z,7.15
2019-03-01T22:03:17.226Z,7.18
2019-03-01T22:05:48.589Z,7.19
2019-03-01T22:08:18.262Z,7.17
2019-03-01T22:10:48.020Z,7.13
2019-03-01T22:13:17.796Z,7.11
2019-03-01T22:15:47.499Z,7.13
2019-03-01T22:18:20.369Z,7.17
2019-03-01T22:20:49.135Z,7.23
2019-03-01T22:23:19.054Z,7.21
2019-03-01T22:25:48.752Z,7.21
2019-03-01T22:28:18.521Z,7.24
2019-03-01T22:30:48.184Z,7.27
2019-03-01T22:33:20.864Z,7.27
2019-03-01T22:35:49.323Z,7.29
2019-03-01T22:38:19.243Z,7.31
2019-03-01T22:40:48.913Z,7.32
2019-03-01T22:43:18.635Z,7.33
2019-03-01T22:45:48.919Z,7.33
2019-03-01T22:48:18.688Z,7.29
2019-03-01T22:50:48.371Z,7.25
2019-03-01T22:53:18.096Z,7.23
2019-03-01T22:55:47.932Z,7.20
2019-03-01T22:58:17.585Z,7.14
2019-03-01T23:01:07.287Z,7.11
2019-03-01T23:03:38.662Z,7.03
2019-03-01T23:06:11.656Z,7.00
2019-03-01T23:08:39.946Z,6.96
2019-03-01T23:11:09.692Z,6.96
2019-03-01T23:13:39.363Z,6.93
2019-03-01T23:16:09.275Z,6.93
2019-03-01T23:18:40.452Z,6.91
2019-03-01T23:21:11.186Z,6.93
2019-03-01T23:23:41.092Z,6.91
2019-03-01T23:26:10.767Z,6.91
2019-03-01T23:28:40.940Z,6.88
2019-03-01T23:31:12.225Z,6.81
2019-03-01T23:33:41.913Z,6.82
2019-03-01T23:36:12.926Z,6.83
2019-03-01T23:38:42.571Z,6.84
2019-03-01T23:41:12.703Z,6.83
2019-03-01T23:43:42.493Z,6.84
2019-03-01T23:46:12.316Z,6.87
2019-03-01T23:48:45.524Z,6.89
2019-03-01T23:51:14.488Z,6.95
2019-03-01T23:53:44.469Z,6.98
2019-03-01T23:56:14.171Z,6.97
2019-03-01T23:58:44.143Z,6.97
